Time;durP1;ratioP1;P1;durP2;ratioP2;P2;SDS_P1;SDS_P2;PMS_P1;PMS_P2;Temp;Humidity;BMP_temperature;BMP_pressure;BME280_temperature;BME280_humidity;BME280_pressure;Samples;Min_cycle;Max_cycle;Signal;HPM_P1;HPM_P2
2023/09/01 00:02:17;;;;;;;0.00;0.00;;;;;;;18.59;100.00;101122.53;10360442;28;20054;-80
2023/09/01 00:07:29;;;;;;;0.68;0.30;;;;;;;18.21;100.00;101115.69;10367312;28;20045;-80
2023/09/01 00:12:31;;;;;;;0.25;0.25;;;;;;;18.46;100.00;101115.63;10363466;28;20654;-79
2023/09/01 00:17:32;;;;;;;0.20;0.20;;;;;;;18.76;100.00;101111.16;10346519;28;20054;-78
2023/09/01 00:22:34;;;;;;;0.30;0.30;;;;;;;18.85;100.00;101114.56;10345819;28;20139;-80
2023/09/01 00:27:35;;;;;;;0.50;0.40;;;;;;;19.54;100.00;101108.94;10335945;28;20038;-80
2023/09/01 00:32:37;;;;;;;0.32;0.13;;;;;;;19.27;100.00;101106.53;10347648;28;20045;-79
2023/09/01 00:37:38;;;;;;;0.10;0.10;;;;;;;19.64;100.00;101119.31;10340708;28;20531;-79
2023/09/01 00:42:40;;;;;;;0.52;0.43;;;;;;;18.93;100.00;101130.25;10347883;28;20662;-80
2023/09/01 00:47:43;;;;;;;0.10;0.10;;;;;;;18.71;100.00;101117.28;10361853;28;20084;-79
2023/09/01 00:52:45;;;;;;;0.28;0.17;;;;;;;18.90;100.00;101111.94;10367196;28;20053;-79
2023/09/01 00:57:46;;;;;;;0.20;0.10;;;;;;;18.68;100.00;101108.59;10363049;28;20056;-81
2023/09/01 01:02:48;;;;;;;0.60;0.22;;;;;;;18.71;100.00;101112.06;10358166;28;20062;-80
2023/09/01 01:08:12;;;;;;;0.08;0.08;;;;;;;18.89;100.00;101110.22;10376933;28;20048;-80
2023/09/01 01:13:18;;;;;;;0.00;0.00;;;;;;;18.38;100.00;101103.47;10380965;28;20564;-80
2023/09/01 01:18:23;;;;;;;0.00;0.00;;;;;;;18.43;100.00;101100.00;10378550;28;20049;-80
2023/09/01 01:23:24;;;;;;;0.55;0.32;;;;;;;19.06;100.00;101106.69;10361230;28;20139;-79
2023/09/01 01:28:26;;;;;;;0.20;0.20;;;;;;;18.80;100.00;101103.31;10364478;28;20409;-80
2023/09/01 01:33:40;;;;;;;0.30;0.30;;;;;;;18.96;100.00;101117.16;10357971;28;20054;-78
2023/09/01 01:38:46;;;;;;;0.63;0.30;;;;;;;19.06;100.00;101114.50;10348369;28;20532;-78
2023/09/01 01:43:50;;;;;;;0.20;0.20;;;;;;;18.58;100.00;101110.34;10358455;28;20057;-78
2023/09/01 01:48:52;;;;;;;0.00;0.00;;;;;;;18.88;100.00;101113.69;10346444;28;20042;-78
2023/09/01 01:53:54;;;;;;;0.20;0.10;;;;;;;18.45;100.00;101126.94;10380322;28;20505;-79
2023/09/01 01:58:55;;;;;;;0.10;0.10;;;;;;;18.54;100.00;101129.50;10369317;28;20042;-78
2023/09/01 02:03:57;;;;;;;0.00;0.00;;;;;;;18.80;100.00;101126.78;10351215;28;20060;-79
2023/09/01 02:08:59;;;;;;;0.22;0.20;;;;;;;18.87;100.00;101127.66;10351303;28;20049;-78
2023/09/01 02:14:01;;;;;;;0.00;0.00;;;;;;;18.26;100.00;101124.38;10373622;28;20058;-80
2023/09/01 02:19:02;;;;;;;0.10;0.10;;;;;;;18.42;100.00;101126.94;10334212;28;20133;-78
2023/09/01 02:24:05;;;;;;;0.60;0.52;;;;;;;18.37;100.00;101133.03;10349082;28;20071;-80
2023/09/01 02:29:07;;;;;;;0.77;0.20;;;;;;;18.08;100.00;101125.28;10356402;28;20497;-79
2023/09/01 02:34:09;;;;;;;0.13;0.13;;;;;;;18.19;100.00;101123.53;10364232;28;20071;-79
2023/09/01 02:39:11;;;;;;;0.35;0.35;;;;;;;18.64;100.00;101126.00;10356812;28;20046;-80
2023/09/01 02:44:13;;;;;;;0.43;0.28;;;;;;;18.58;100.00;101120.78;10347471;28;20083;-79
2023/09/01 02:49:14;;;;;;;0.85;0.40;;;;;;;18.50;100.00;101128.66;10365531;28;20050;-79
2023/09/01 02:54:16;;;;;;;0.17;0.17;;;;;;;18.39;100.00;101136.50;10365925;28;20583;-80
2023/09/01 02:59:17;;;;;;;0.10;0.08;;;;;;;18.11;100.00;101133.09;10366289;28;20049;-80
2023/09/01 03:04:20;;;;;;;0.17;0.10;;;;;;;18.28;100.00;101135.66;10364681;28;20057;-78
2023/09/01 03:09:21;;;;;;;0.15;0.10;;;;;;;18.24;100.00;101131.34;10366760;28;20037;-79
2023/09/01 03:14:24;;;;;;;1.27;0.40;;;;;;;18.06;100.00;101127.88;10372141;28;20042;-80
2023/09/01 03:19:26;;;;;;;0.00;0.00;;;;;;;17.75;100.00;101137.44;10354182;28;20100;-78
2023/09/01 03:24:28;;;;;;;0.08;0.03;;;;;;;17.73;100.00;101124.41;10349917;28;20046;-79
2023/09/01 03:29:29;;;;;;;0.00;0.00;;;;;;;17.80;100.00;101124.41;10341737;28;20061;-79
2023/09/01 03:34:31;;;;;;;0.00;0.00;;;;;;;18.02;100.00;101115.75;10371952;28;20093;-79
2023/09/01 03:39:32;;;;;;;0.10;0.10;;;;;;;18.05;100.00;101107.94;10354660;28;20050;-79
2023/09/01 03:44:34;;;;;;;0.40;0.20;;;;;;;17.94;100.00;101101.81;10351743;28;20046;-80
2023/09/01 03:49:36;;;;;;;0.70;0.32;;;;;;;17.97;100.00;101107.06;10350514;28;20057;-80
2023/09/01 03:54:37;;;;;;;0.00;0.00;;;;;;;17.85;100.00;101099.22;10349923;28;20053;-79
2023/09/01 03:59:40;;;;;;;0.32;0.30;;;;;;;17.64;100.00;101108.78;10363991;28;20046;-79
2023/09/01 04:04:42;;;;;;;0.25;0.10;;;;;;;18.06;100.00;101095.75;10349905;28;20115;-80
2023/09/01 04:09:43;;;;;;;0.00;0.00;;;;;;;17.36;100.00;101093.16;10342566;28;20049;-80
2023/09/01 04:14:45;;;;;;;0.28;0.28;;;;;;;17.21;100.00;101085.31;10342410;28;20060;-80
2023/09/01 04:19:47;;;;;;;1.95;0.30;;;;;;;17.48;100.00;101075.78;10341642;28;20065;-80
2023/09/01 04:24:49;;;;;;;1.02;0.52;;;;;;;17.14;100.00;101081.81;10351989;28;20146;-80
2023/09/01 04:29:51;;;;;;;2.20;0.40;;;;;;;17.79;100.00;101071.44;10366631;28;20069;-80
2023/09/01 04:35:11;;;;;;;0.37;0.37;;;;;;;17.54;100.00;101067.97;10344421;28;20042;-80
2023/09/01 04:40:13;;;;;;;0.50;0.43;;;;;;;17.62;100.00;101061.00;10363085;28;20041;-80
2023/09/01 04:45:15;;;;;;;0.00;0.00;;;;;;;17.56;100.00;101061.91;10340654;28;20053;-79
2023/09/01 04:50:17;;;;;;;2.38;0.77;;;;;;;17.69;100.00;101064.50;10342512;28;20042;-79
2023/09/01 04:55:19;;;;;;;0.60;0.40;;;;;;;17.91;100.00;101080.94;10367453;28;20042;-80
2023/09/01 05:00:21;;;;;;;0.20;0.20;;;;;;;18.69;100.00;101085.09;10341300;28;20038;-78
2023/09/01 05:05:24;;;;;;;0.57;0.57;;;;;;;18.94;100.00;101091.94;10344606;28;20038;-80
2023/09/01 05:10:26;;;;;;;0.20;0.20;;;;;;;19.01;100.00;101097.13;10346406;28;20654;-78
2023/09/01 05:15:27;;;;;;;0.10;0.10;;;;;;;19.09;100.00;101093.63;10333729;28;20053;-79
2023/09/01 05:20:29;;;;;;;0.00;0.00;;;;;;;19.62;100.00;101102.75;10346796;28;20498;-79
2023/09/01 05:25:30;;;;;;;0.00;0.00;;;;;;;19.19;100.00;101113.56;10340532;28;20105;-78
2023/09/01 05:30:32;;;;;;;0.00;0.00;;;;;;;19.79;100.00;101109.59;10353620;28;20526;-78
2023/09/01 05:35:34;;;;;;;0.45;0.25;;;;;;;19.15;100.00;101117.06;10349985;28;20046;-79
2023/09/01 05:40:37;;;;;;;0.38;0.30;;;;;;;19.48;100.00;101112.47;10367168;28;20421;-80
2023/09/01 05:45:39;;;;;;;0.00;0.00;;;;;;;19.21;100.00;101122.25;10361916;28;20664;-79
2023/09/01 05:50:42;;;;;;;0.17;0.17;;;;;;;19.37;100.00;101111.69;10345412;28;20141;-81
2023/09/01 05:55:44;;;;;;;0.00;0.00;;;;;;;19.74;100.00;101112.25;10345716;28;20046;-79
2023/09/01 06:00:46;;;;;;;0.22;0.00;;;;;;;19.41;100.00;101110.78;10338152;28;20038;-80
2023/09/01 06:05:47;;;;;;;0.10;0.10;;;;;;;20.01;100.00;101114.66;10337401;28;20058;-79
2023/09/01 06:10:49;;;;;;;0.20;0.05;;;;;;;19.76;100.00;101122.72;10359663;28;20085;-78
2023/09/01 06:15:50;;;;;;;0.63;0.08;;;;;;;19.19;100.00;101126.59;10343696;28;20081;-80
2023/09/01 06:20:52;;;;;;;0.10;0.10;;;;;;;19.97;100.00;101125.16;10369657;28;20096;-79
2023/09/01 06:25:54;;;;;;;0.45;0.32;;;;;;;20.13;100.00;101125.88;10369135;28;20046;-78
2023/09/01 06:30:55;;;;;;;0.35;0.22;;;;;;;19.83;100.00;101098.25;10371666;28;20038;-80
2023/09/01 06:35:57;;;;;;;0.57;0.10;;;;;;;19.43;100.00;101101.19;10360957;28;20060;-79
2023/09/01 06:40:58;;;;;;;0.82;0.40;;;;;;;20.12;100.00;101112.81;10361839;28;20046;-79
2023/09/01 06:46:00;;;;;;;0.40;0.40;;;;;;;19.73;100.00;101120.97;10364587;28;20785;-79
2023/09/01 06:51:02;;;;;;;0.00;0.00;;;;;;;20.43;100.00;101128.19;10354979;28;20045;-79
2023/09/01 06:56:04;;;;;;;2.08;0.50;;;;;;;19.75;100.00;101126.22;10350350;28;20052;-79
2023/09/01 07:01:10;;;;;;;1.65;0.80;;;;;;;20.33;100.00;101126.53;10348729;28;20103;-81
2023/09/01 07:06:11;;;;;;;0.77;0.30;;;;;;;20.12;100.00;101124.13;10369446;28;20055;-79
2023/09/01 07:11:14;;;;;;;0.47;0.47;;;;;;;21.18;100.00;101122.84;10369966;28;20483;-80
2023/09/01 07:16:16;;;;;;;0.65;0.40;;;;;;;20.92;100.00;101122.34;10357410;28;20042;-79
2023/09/01 07:21:17;;;;;;;0.52;0.40;;;;;;;20.54;100.00;101115.81;10362888;28;20046;-80
2023/09/01 07:26:19;;;;;;;0.55;0.45;;;;;;;21.02;100.00;101123.06;10343003;28;20077;-80
2023/09/01 07:31:20;;;;;;;0.40;0.30;;;;;;;20.91;100.00;101125.00;10354410;28;20467;-79
2023/09/01 07:36:22;;;;;;;0.28;0.28;;;;;;;21.42;100.00;101123.38;10361612;28;20049;-80
2023/09/01 07:41:23;;;;;;;0.35;0.30;;;;;;;21.41;100.00;101119.88;10360228;28;20046;-80
2023/09/01 07:46:27;;;;;;;0.52;0.45;;;;;;;21.06;100.00;101124.78;10368089;28;20049;-78
2023/09/01 07:51:28;;;;;;;0.32;0.20;;;;;;;21.29;100.00;101113.09;10355579;28;20042;-79
2023/09/01 07:56:32;;;;;;;0.40;0.20;;;;;;;21.68;100.00;101118.59;10338326;28;20047;-80
2023/09/01 08:01:33;;;;;;;0.43;0.40;;;;;;;21.74;100.00;101116.78;10327756;28;20571;-79
2023/09/01 08:06:35;;;;;;;0.85;0.30;;;;;;;21.24;100.00;101128.88;10341806;28;20117;-80
2023/09/01 08:11:36;;;;;;;1.05;0.93;;;;;;;21.34;100.00;101129.59;10356894;28;20061;-80
2023/09/01 08:16:38;;;;;;;1.00;0.60;;;;;;;21.13;100.00;101127.31;10367116;28;20088;-80
2023/09/01 08:21:40;;;;;;;0.40;0.20;;;;;;;21.89;100.00;101136.59;10366546;28;20581;-78
2023/09/01 08:26:41;;;;;;;1.25;0.43;;;;;;;21.64;100.00;101137.00;10365325;28;20034;-79
2023/09/01 08:31:43;;;;;;;1.67;0.95;;;;;;;21.89;100.00;101128.75;10357488;28;20116;-79
2023/09/01 08:36:44;;;;;;;0.10;0.10;;;;;;;22.89;100.00;101125.94;10347127;28;20516;-81
2023/09/01 08:41:48;;;;;;;0.28;0.28;;;;;;;22.44;100.00;101126.84;10356568;28;20049;-79
2023/09/01 08:46:55;;;;;;;1.20;0.52;;;;;;;22.38;100.00;101130.44;10361621;28;20052;-80
2023/09/01 08:51:57;;;;;;;0.77;0.43;;;;;;;23.16;100.00;101139.34;10347395;28;20549;-80
2023/09/01 08:56:58;;;;;;;0.77;0.65;;;;;;;23.05;100.00;101137.81;10365758;28;20046;-80
2023/09/01 09:02:03;;;;;;;0.10;0.10;;;;;;;22.99;100.00;101148.47;10353700;28;20053;-80
2023/09/01 09:07:13;;;;;;;0.60;0.43;;;;;;;22.02;100.00;101143.34;10369881;28;20054;-81
2023/09/01 09:12:16;;;;;;;3.00;0.70;;;;;;;22.41;100.00;101146.16;10354244;28;20049;-80
2023/09/01 09:17:20;;;;;;;0.98;0.73;;;;;;;22.50;100.00;101153.88;10350918;28;20060;-79
2023/09/01 09:22:22;;;;;;;0.05;0.05;;;;;;;23.26;100.00;101154.03;10375197;28;20048;-79
2023/09/01 09:27:25;;;;;;;0.43;0.30;;;;;;;22.49;100.00;101149.50;10351422;28;20120;-79
2023/09/01 09:32:26;;;;;;;0.32;0.20;;;;;;;23.08;100.00;101168.44;10345286;28;20049;-80
2023/09/01 09:37:28;;;;;;;0.20;0.20;;;;;;;22.35;100.00;101162.00;10366692;28;20058;-79
2023/09/01 09:42:40;;;;;;;3.00;1.35;;;;;;;22.40;100.00;101164.59;10371507;28;20045;-80
2023/09/01 09:47:44;;;;;;;2.30;0.35;;;;;;;22.37;100.00;101162.84;10369372;28;20037;-80
2023/09/01 09:52:54;;;;;;;0.47;0.35;;;;;;;22.63;100.00;101164.13;10365790;28;20536;-80
2023/09/01 09:58:15;;;;;;;;;;;;;;;22.90;100.00;101169.66;10367074;28;20532;-79
2023/09/01 10:03:20;;;;;;;1.75;0.73;;;;;;;22.73;100.00;101160.41;10373238;28;20008;-79
2023/09/01 10:08:23;;;;;;;0.57;0.32;;;;;;;22.57;100.00;101161.63;10361433;28;20038;-80
2023/09/01 10:13:25;;;;;;;1.10;0.68;;;;;;;22.66;100.00;101169.31;10371065;28;20143;-80
2023/09/01 10:18:28;;;;;;;0.68;0.40;;;;;;;23.00;100.00;101171.22;10366026;28;20045;-79
2023/09/01 10:23:32;;;;;;;0.17;0.17;;;;;;;21.97;100.00;101172.28;10365164;28;20108;-79
2023/09/01 10:28:54;;;;;;;0.38;0.25;;;;;;;22.49;100.00;101175.75;10336621;28;20046;-79
2023/09/01 10:34:05;;;;;;;0.50;0.30;;;;;;;22.25;100.00;101171.81;10337875;28;20045;-80
2023/09/01 10:39:16;;;;;;;0.77;0.43;;;;;;;22.74;100.00;101177.91;10357856;28;20050;-80
2023/09/01 10:44:17;;;;;;;0.93;0.52;;;;;;;22.63;100.00;101169.38;10350311;28;20064;-80
2023/09/01 10:49:20;;;;;;;1.80;0.60;;;;;;;22.66;100.00;101164.06;10363226;28;20060;-80
2023/09/01 10:54:21;;;;;;;1.50;0.93;;;;;;;22.05;100.00;101169.56;10363575;28;20559;-81
2023/09/01 10:59:30;;;;;;;0.32;0.32;;;;;;;22.07;100.00;101165.16;10362327;28;20053;-80
2023/09/01 11:04:32;;;;;;;4.03;0.82;;;;;;;22.06;100.00;101159.91;10356884;28;20501;-80
2023/09/01 11:09:33;;;;;;;0.65;0.38;;;;;;;22.98;100.00;101165.13;10348476;28;20053;-80
2023/09/01 11:14:38;;;;;;;2.47;1.00;;;;;;;22.43;100.00;101175.88;10364978;28;20464;-81
2023/09/01 11:19:47;;;;;;;0.88;0.50;;;;;;;23.22;100.00;101165.50;10368803;28;20381;-81
2023/09/01 11:24:50;;;;;;;0.40;0.40;;;;;;;22.78;100.00;101163.78;10345959;28;20508;-80
2023/09/01 11:29:54;;;;;;;1.13;0.90;;;;;;;22.94;100.00;101171.34;10364433;28;20038;-81
2023/09/01 11:34:57;;;;;;;1.63;0.82;;;;;;;22.76;100.00;101178.72;10364750;28;20042;-80
2023/09/01 11:40:00;;;;;;;1.02;0.38;;;;;;;23.90;100.00;101184.94;10346041;28;20067;-80
2023/09/01 11:45:11;;;;;;;1.05;0.45;;;;;;;22.64;100.00;101190.34;10344759;28;20065;-80
2023/09/01 11:50:16;;;;;;;0.30;0.30;;;;;;;23.66;100.00;101197.78;10350960;28;20112;-79
2023/09/01 11:55:34;;;;;;;0.90;0.38;;;;;;;23.88;100.00;101198.13;10363563;28;20100;-78
2023/09/01 12:00:39;;;;;;;1.60;0.28;;;;;;;23.89;100.00;101204.25;10366274;28;20045;-80
2023/09/01 12:05:41;;;;;;;0.43;0.25;;;;;;;23.64;100.00;101210.13;10362692;28;20054;-80
2023/09/01 12:10:42;;;;;;;0.10;0.10;;;;;;;22.93;100.00;101211.66;10363860;28;20046;-79
2023/09/01 12:16:00;;;;;;;0.55;0.38;;;;;;;23.17;100.00;101212.03;10350796;28;20061;-79
2023/09/01 12:21:09;;;;;;;0.70;0.70;;;;;;;22.49;100.00;101196.75;10359895;28;20069;-79
2023/09/01 12:26:14;;;;;;;0.27;0.27;;;;;;;23.99;100.00;101204.91;10365103;28;20433;-79
2023/09/01 12:31:15;;;;;;;0.40;0.38;;;;;;;24.04;100.00;101205.69;10352309;28;20053;-80
2023/09/01 12:36:17;;;;;;;0.50;0.38;;;;;;;24.01;100.00;101198.72;10352943;28;20049;-81
2023/09/01 12:41:19;;;;;;;1.10;0.50;;;;;;;23.18;100.00;101208.53;10358449;28;20047;-79
2023/09/01 12:46:20;;;;;;;5.05;0.70;;;;;;;23.57;100.00;101225.19;10358942;28;20641;-79
2023/09/01 12:51:22;;;;;;;1.40;0.80;;;;;;;22.56;100.00;101217.66;10353554;28;20042;-80
2023/09/01 12:56:23;;;;;;;2.47;0.85;;;;;;;23.96;100.00;101221.63;10360712;28;20048;-80
2023/09/01 13:01:25;;;;;;;4.82;1.05;;;;;;;24.27;100.00;101230.53;10352049;28;20046;-81
2023/09/01 13:06:26;;;;;;;2.22;0.70;;;;;;;24.70;100.00;101224.13;10337962;28;20127;-80
2023/09/01 13:11:28;;;;;;;1.52;0.73;;;;;;;23.92;100.00;101227.88;10359353;28;20544;-82
2023/09/01 13:16:30;;;;;;;1.15;1.05;;;;;;;24.54;100.00;101223.63;10357236;28;20412;-81
2023/09/01 13:21:31;;;;;;;0.50;0.50;;;;;;;24.59;100.00;101229.66;10366250;28;20050;-78
2023/09/01 13:26:33;;;;;;;1.27;0.73;;;;;;;24.48;100.00;101232.59;10344948;28;20476;-80
2023/09/01 13:31:35;;;;;;;0.80;0.75;;;;;;;24.60;100.00;101228.75;10367531;28;20060;-81
2023/09/01 13:36:36;;;;;;;2.65;1.77;;;;;;;24.37;100.00;101248.69;10345420;28;20057;-79
2023/09/01 13:41:38;;;;;;;0.35;0.32;;;;;;;24.63;100.00;101256.78;10339464;28;20057;-80
2023/09/01 13:46:39;;;;;;;0.75;0.40;;;;;;;24.66;100.00;101265.50;10357798;28;20050;-80
2023/09/01 13:51:41;;;;;;;0.43;0.38;;;;;;;24.80;100.00;101257.19;10352706;28;20145;-80
2023/09/01 13:56:42;;;;;;;0.40;0.40;;;;;;;23.91;100.00;101255.06;10364957;28;20497;-80
2023/09/01 14:01:44;;;;;;;1.27;1.08;;;;;;;24.81;100.00;101251.00;10362834;28;20492;-80
2023/09/01 14:06:47;;;;;;;1.10;0.98;;;;;;;24.78;100.00;101263.41;10350185;28;20057;-82
2023/09/01 14:11:49;;;;;;;0.38;0.15;;;;;;;25.75;100.00;101257.94;10361959;28;20464;-80
2023/09/01 14:16:50;;;;;;;0.30;0.25;;;;;;;25.61;100.00;101266.28;10368026;28;20050;-78
2023/09/01 14:21:52;;;;;;;0.20;0.20;;;;;;;24.57;100.00;101270.97;10356438;28;20042;-79
2023/09/01 14:26:54;;;;;;;0.77;0.40;;;;;;;24.83;100.00;101270.28;10361169;28;20505;-80
2023/09/01 14:31:56;;;;;;;0.85;0.40;;;;;;;24.60;100.00;101268.28;10340529;28;20046;-80
2023/09/01 14:36:57;;;;;;;1.38;0.50;;;;;;;25.37;100.00;101278.41;10347197;28;20505;-80
2023/09/01 14:41:59;;;;;;;0.50;0.47;;;;;;;25.76;100.00;101279.88;10357466;28;20525;-78
2023/09/01 14:47:00;;;;;;;0.95;0.60;;;;;;;24.63;100.00;101283.97;10356495;28;20049;-79
2023/09/01 14:52:02;;;;;;;0.95;0.40;;;;;;;25.16;100.00;101279.91;10344905;28;20406;-79
2023/09/01 14:57:04;;;;;;;2.08;0.60;;;;;;;25.48;100.00;101288.66;10339343;28;20054;-80
2023/09/01 15:02:05;;;;;;;0.93;0.52;;;;;;;25.46;100.00;101298.41;10346941;28;20463;-79
2023/09/01 15:07:07;;;;;;;0.32;0.00;;;;;;;24.70;100.00;101298.75;10354392;28;20505;-78
2023/09/01 15:12:09;;;;;;;3.30;0.63;;;;;;;24.68;100.00;101300.56;10361936;28;20046;-80
2023/09/01 15:17:10;;;;;;;3.05;1.73;;;;;;;25.66;100.00;101298.63;10343120;28;20100;-79
2023/09/01 15:22:14;;;;;;;0.88;0.57;;;;;;;25.37;100.00;101309.19;10362880;28;20072;-80
2023/09/01 15:27:15;;;;;;;0.90;0.55;;;;;;;25.23;100.00;101307.81;10355279;28;20104;-78
2023/09/01 15:32:16;;;;;;;0.55;0.25;;;;;;;24.59;100.00;101303.41;10350103;28;20460;-78
2023/09/01 15:37:18;;;;;;;0.25;0.20;;;;;;;24.89;100.00;101314.06;10344858;28;20108;-79
2023/09/01 15:42:19;;;;;;;0.20;0.15;;;;;;;24.96;100.00;101320.88;10336429;28;20088;-78
2023/09/01 15:47:21;;;;;;;0.08;0.00;;;;;;;24.32;100.00;101326.91;10345696;28;20412;-79
2023/09/01 15:52:22;;;;;;;0.20;0.20;;;;;;;24.91;100.00;101327.19;10354974;28;20120;-80
2023/09/01 15:57:24;;;;;;;0.70;0.30;;;;;;;25.02;100.00;101331.25;10346439;28;20105;-78
2023/09/01 16:02:26;;;;;;;0.60;0.60;;;;;;;24.22;100.00;101325.41;10354484;28;20050;-79
2023/09/01 16:07:27;;;;;;;0.20;0.20;;;;;;;24.71;100.00;101318.91;10366322;28;20053;-78
2023/09/01 16:12:29;;;;;;;1.05;0.52;;;;;;;24.80;100.00;101324.84;10347648;28;20053;-79
2023/09/01 16:17:31;;;;;;;2.35;0.52;;;;;;;24.87;100.00;101329.03;10360865;28;20053;-80
2023/09/01 16:22:32;;;;;;;0.10;0.03;;;;;;;24.62;100.00;101326.16;10344471;28;20477;-78
2023/09/01 16:27:34;;;;;;;0.20;0.20;;;;;;;24.02;100.00;101329.38;10353254;28;20478;-80
2023/09/01 16:32:36;;;;;;;0.63;0.45;;;;;;;24.83;100.00;101322.16;10337023;28;20056;-79
2023/09/01 16:37:37;;;;;;;0.55;0.55;;;;;;;24.62;100.00;101329.66;10336536;28;20049;-79
2023/09/01 16:42:41;;;;;;;0.88;0.50;;;;;;;23.64;100.00;101331.13;10344049;28;20068;-79
2023/09/01 16:47:42;;;;;;;0.40;0.40;;;;;;;24.01;100.00;101335.56;10362488;28;20111;-78
2023/09/01 16:52:45;;;;;;;0.30;0.30;;;;;;;24.43;100.00;101333.69;10335221;28;20051;-79
2023/09/01 16:57:46;;;;;;;0.38;0.28;;;;;;;24.73;100.00;101328.56;10351670;28;20056;-79
2023/09/01 17:02:48;;;;;;;0.03;0.03;;;;;;;24.13;100.00;101338.78;10335758;28;20500;-79
2023/09/01 17:07:49;;;;;;;0.95;0.40;;;;;;;23.81;100.00;101335.09;10330717;28;20076;-78
2023/09/01 17:12:51;;;;;;;1.13;0.90;;;;;;;24.17;100.00;101341.31;10349715;28;20048;-78
2023/09/01 17:17:53;;;;;;;1.08;0.47;;;;;;;23.78;100.00;101330.78;10362533;28;20054;-78
2023/09/01 17:22:56;;;;;;;1.67;0.50;;;;;;;23.73;100.00;101341.41;10346427;28;20050;-80
2023/09/01 17:27:58;;;;;;;0.82;0.80;;;;;;;23.98;100.00;101346.16;10372022;28;20050;-78
2023/09/01 17:32:59;;;;;;;2.72;1.30;;;;;;;23.90;100.00;101353.31;10360453;28;20045;-78
2023/09/01 17:38:01;;;;;;;0.70;0.35;;;;;;;23.68;100.00;101353.81;10358753;28;20521;-80
2023/09/01 17:43:03;;;;;;;0.73;0.73;;;;;;;24.26;100.00;101361.28;10353339;28;20232;-80
2023/09/01 17:48:05;;;;;;;1.58;0.50;;;;;;;24.37;100.00;101361.03;10341511;28;20049;-80
2023/09/01 17:53:08;;;;;;;0.43;0.35;;;;;;;23.80;100.00;101362.31;10348726;28;20049;-79
2023/09/01 17:58:09;;;;;;;0.20;0.20;;;;;;;23.31;100.00;101353.72;10354371;28;20050;-79
2023/09/01 18:03:11;;;;;;;0.70;0.25;;;;;;;23.36;100.00;101357.13;10328342;28;20042;-78
2023/09/01 18:08:12;;;;;;;3.92;0.63;;;;;;;23.63;100.00;101366.19;10355302;28;20122;-80
2023/09/01 18:13:14;;;;;;;0.88;0.60;;;;;;;23.69;100.00;101378.34;10364701;28;20049;-78
2023/09/01 18:18:16;;;;;;;0.43;0.40;;;;;;;23.68;100.00;101388.00;10366891;28;20068;-78
2023/09/01 18:23:24;;;;;;;0.28;0.20;;;;;;;23.35;100.00;101395.66;10369303;28;20124;-80
2023/09/01 18:28:27;;;;;;;0.22;0.22;;;;;;;23.13;100.00;101396.06;10363658;28;20053;-80
2023/09/01 18:33:30;;;;;;;0.47;0.47;;;;;;;23.10;100.00;101406.63;10367029;28;20058;-79
2023/09/01 18:38:31;;;;;;;0.30;0.30;;;;;;;22.09;100.00;101407.34;10343832;28;20504;-78
2023/09/01 18:43:33;;;;;;;0.35;0.35;;;;;;;22.74;100.00;101416.91;10343215;28;20144;-79
2023/09/01 18:48:34;;;;;;;0.10;0.10;;;;;;;22.42;100.00;101425.28;10341393;28;20050;-79
2023/09/01 18:53:40;;;;;;;0.52;0.32;;;;;;;22.44;100.00;101437.53;10355396;28;20050;-79
2023/09/01 18:58:45;;;;;;;1.48;0.45;;;;;;;22.02;100.00;101432.81;10347113;28;20061;-80
2023/09/01 19:03:47;;;;;;;0.65;0.43;;;;;;;22.26;100.00;101443.00;10362892;28;20062;-83
2023/09/01 19:08:49;;;;;;;0.85;0.50;;;;;;;22.40;100.00;101448.94;10355798;28;20050;-81
2023/09/01 19:13:54;;;;;;;0.45;0.38;;;;;;;22.28;100.00;101464.84;10366457;28;20642;-81
2023/09/01 19:18:58;;;;;;;0.95;0.88;;;;;;;22.19;100.00;101466.69;10363291;28;20041;-78
2023/09/01 19:24:00;;;;;;;0.47;0.28;;;;;;;22.64;100.00;101478.34;10352751;28;20058;-80
2023/09/01 19:29:12;;;;;;;0.40;0.40;;;;;;;22.76;100.00;101493.91;10337114;28;20050;-79
2023/09/01 19:34:15;;;;;;;0.40;0.30;;;;;;;22.12;100.00;101486.03;10361335;28;20046;-80
2023/09/01 19:39:23;;;;;;;0.10;0.10;;;;;;;22.21;100.00;101489.44;10348222;28;20057;-79
2023/09/01 19:44:25;;;;;;;0.00;0.00;;;;;;;22.70;100.00;101503.66;10345558;28;20097;-80
2023/09/01 19:49:26;;;;;;;1.13;0.40;;;;;;;22.11;100.00;101488.69;10364235;28;20057;-80
2023/09/01 19:54:28;;;;;;;0.32;0.20;;;;;;;22.68;100.00;101501.03;10360777;28;20591;-80
2023/09/01 19:59:30;;;;;;;0.30;0.30;;;;;;;22.66;100.00;101494.94;10346427;28;20417;-81
2023/09/01 20:04:33;;;;;;;1.27;0.60;;;;;;;22.85;100.00;101507.78;10356377;28;20057;-79
2023/09/01 20:09:34;;;;;;;0.55;0.45;;;;;;;23.01;100.00;101508.44;10347926;28;20042;-78
2023/09/01 20:14:36;;;;;;;1.80;0.60;;;;;;;22.24;100.00;101499.88;10341009;28;20116;-77
2023/09/01 20:19:37;;;;;;;0.70;0.52;;;;;;;22.85;100.00;101502.53;10352529;28;20493;-80
2023/09/01 20:24:39;;;;;;;0.68;0.30;;;;;;;22.60;100.00;101508.19;10360814;28;20057;-78
2023/09/01 20:29:40;;;;;;;0.15;0.15;;;;;;;23.08;100.00;101520.56;10331498;28;20046;-79
2023/09/01 20:34:42;;;;;;;0.52;0.40;;;;;;;23.02;100.00;101518.91;10361334;28;20520;-79
2023/09/01 20:39:43;;;;;;;0.80;0.65;;;;;;;22.90;100.00;101526.97;10342284;28;20046;-79
2023/09/01 20:44:45;;;;;;;0.57;0.40;;;;;;;22.86;100.00;101525.28;10349741;28;20050;-78
2023/09/01 20:49:47;;;;;;;0.43;0.43;;;;;;;22.83;100.00;101531.47;10359491;28;20046;-79
2023/09/01 20:54:48;;;;;;;0.80;0.50;;;;;;;23.38;100.00;101544.63;10341299;28;20103;-79
2023/09/01 20:59:50;;;;;;;0.73;0.55;;;;;;;22.19;100.00;101550.69;10313628;28;20057;-80
2023/09/01 21:04:52;;;;;;;0.98;0.43;;;;;;;22.67;100.00;101541.34;10339741;28;20412;-80
2023/09/01 21:09:53;;;;;;;0.22;0.20;;;;;;;22.77;100.00;101553.44;10373124;28;20046;-79
2023/09/01 21:14:55;;;;;;;0.45;0.45;;;;;;;22.68;100.00;101558.81;10357404;28;20042;-80
2023/09/01 21:19:58;;;;;;;0.90;0.50;;;;;;;22.41;100.00;101554.84;10350478;28;20065;-80
2023/09/01 21:25:00;;;;;;;0.88;0.70;;;;;;;22.40;100.00;101556.56;10366650;28;20504;-81
2023/09/01 21:30:15;;;;;;;0.43;0.43;;;;;;;22.38;100.00;101570.56;10370575;28;20035;-80
2023/09/01 21:35:17;;;;;;;0.43;0.20;;;;;;;21.70;100.00;101556.50;10346335;28;20053;-81
2023/09/01 21:40:19;;;;;;;1.17;0.57;;;;;;;21.80;100.00;101547.63;10359665;28;20053;-79
2023/09/01 21:45:20;;;;;;;2.35;0.47;;;;;;;21.59;100.00;101550.47;10340295;28;20104;-77
2023/09/01 21:50:23;;;;;;;0.63;0.40;;;;;;;22.41;100.00;101563.56;10330994;28;20064;-79
2023/09/01 21:55:25;;;;;;;0.90;0.68;;;;;;;22.47;100.00;101576.59;10347798;28;20056;-79
2023/09/01 22:00:27;;;;;;;0.57;0.50;;;;;;;22.50;100.00;101563.44;10354636;28;20045;-78
2023/09/01 22:05:28;;;;;;;1.30;0.70;;;;;;;22.45;100.00;101562.63;10368529;28;20057;-80
2023/09/01 22:10:30;;;;;;;0.90;0.57;;;;;;;21.12;100.00;101569.16;10359229;28;20398;-80
2023/09/01 22:15:32;;;;;;;0.77;0.30;;;;;;;21.52;100.00;101550.50;10347668;28;20054;-78
2023/09/01 22:20:34;;;;;;;0.55;0.50;;;;;;;22.37;100.00;101572.34;10369483;28;20050;-80
2023/09/01 22:25:35;;;;;;;0.40;0.40;;;;;;;21.58;100.00;101567.06;10344443;28;20054;-79
2023/09/01 22:30:37;;;;;;;0.63;0.63;;;;;;;22.02;100.00;101573.63;10363832;28;20041;-80
2023/09/01 22:35:38;;;;;;;1.17;1.08;;;;;;;21.98;100.00;101577.16;10364265;28;20057;-79
2023/09/01 22:40:40;;;;;;;0.22;0.15;;;;;;;22.00;100.00;101584.13;10344220;28;20065;-80
2023/09/01 22:45:42;;;;;;;0.30;0.30;;;;;;;21.66;100.00;101586.22;10362106;28;20057;-80
2023/09/01 22:50:43;;;;;;;0.08;0.08;;;;;;;22.44;100.00;101602.91;10325083;28;20081;-79
2023/09/01 22:55:45;;;;;;;2.40;0.65;;;;;;;21.99;100.00;101599.91;10364196;28;20534;-79